Portada
METAR-TAF:

METAR-TAF

Aeropuertos :

Colmenar Viejo, España

latitud: 40-39N, longitud: 003-44W, altitud: -999 m

Observación

El informe se hizo hace 7 horas y 45 minutos, a las 18:00 UTC
Viento 6 kt del este
Temperatura 25°C
Humedad 32%
Presión 1021 hPa
Visibilidad 10 km o más
Escasas nubes a una altura de 6000 ft

METAR: LECV 161800Z 09006KT 9999 FEW060 25/07 Q1021

Hora: 03:45 (01:45 UTC)

Pronóstico

El informe se hizo hace 8 horas y 45 minutos, a las 17:00 UTC
Pronóstico válido del 16 a las 18 UTC al 17 a las 03 UTC
Viento 10 kt del norte-noreste
Visibilidad 10 km o más
Escasas nubes a una altura de 4500 ft
Probabilidad 30% :
Temporalmente
del 16 a las 18 UTC al 16 a las 19 UTC
Escasas nubes a una altura de 3000 ft, Cumulus congestus.

TAF: LECV 161700Z 1618/1703 03010KT 9999 FEW045 PROB30 TEMPO 1618/1619 FEW030TCU

Observaciones y pronósticos meteorológicos de más de 4000 aeropuertos (mensajes METAR y TAF).

Los puntos amarillos y rojos representan las estaciones disponibles.

Ponga el ratón en el punto deseado para ver el nombre de la estación.

Haga clic para ver las observaciones y los pronósticos meteorológicos.

Para cambiar el mapa : haga clic en los botones verdes con una cruz de color negro para hacer un zoom, en el botón verde con un guión para alejar o en las flechas verdes para mapas adyacentes.


METAR-TAF: